Time;durP1;ratioP1;P1;durP2;ratioP2;P2;SDS_P1;SDS_P2;PMS_P1;PMS_P2;Temp;Humidity;BMP_temperature;BMP_pressure;BME280_temperature;BME280_humidity;BME280_pressure;Samples;Min_cycle;Max_cycle;Signal;HPM_P1;HPM_P2
2023/12/18 00:00:18;;;;;;;6.67;4.00;;;;;6.10;102671.00;;;;5046475;28;20240;-71
2023/12/18 00:03:05;;;;;;;7.80;4.47;;;;;6.10;102671.00;;;;5042842;28;20371;-73
2023/12/18 00:05:52;;;;;;;9.20;4.77;;;;;6.00;102659.00;;;;5042400;28;20235;-75
2023/12/18 00:08:39;;;;;;;7.87;4.23;;;;;5.90;102673.00;;;;5040946;28;20572;-74
2023/12/18 00:11:25;;;;;;;11.73;4.40;;;;;6.00;102674.00;;;;5045037;28;20233;-73
2023/12/18 00:14:12;;;;;;;8.93;4.90;;;;;6.00;102673.00;;;;5041657;28;20224;-74
2023/12/18 00:16:59;;;;;;;8.10;4.63;;;;;6.00;102672.00;;;;5023692;28;20576;-73
2023/12/18 00:19:45;;;;;;;6.33;3.73;;;;;6.20;102684.00;;;;5037086;28;20232;-73
2023/12/18 00:22:31;;;;;;;12.50;4.87;;;;;6.10;102661.00;;;;5027617;28;20257;-72
2023/12/18 00:25:18;;;;;;;10.13;4.10;;;;;6.10;102667.00;;;;5039056;28;20314;-73
2023/12/18 00:28:06;;;;;;;8.93;4.63;;;;;6.10;102661.00;;;;5037239;28;20232;-73
2023/12/18 00:30:52;;;;;;;8.40;4.37;;;;;6.20;102662.00;;;;5046755;28;20344;-74
2023/12/18 00:33:39;;;;;;;7.80;4.27;;;;;6.20;102663.00;;;;5037595;28;20756;-73
2023/12/18 00:36:25;;;;;;;6.17;3.90;;;;;6.20;102663.00;;;;5039255;28;20369;-73
2023/12/18 00:39:15;;;;;;;7.07;3.80;;;;;6.20;102659.00;;;;5044812;28;20347;-71
2023/12/18 00:42:03;;;;;;;6.13;3.40;;;;;6.10;102664.00;;;;5034570;28;20609;-73
2023/12/18 00:44:50;;;;;;;6.40;3.77;;;;;6.00;102657.00;;;;5044018;28;20243;-72
2023/12/18 00:47:36;;;;;;;11.03;4.60;;;;;6.00;102663.00;;;;5044465;28;20338;-73
2023/12/18 00:50:23;;;;;;;6.20;4.03;;;;;6.10;102666.00;;;;5042724;28;20232;-73
2023/12/18 00:53:10;;;;;;;8.27;3.53;;;;;6.00;102664.00;;;;5040157;28;20295;-72
2023/12/18 00:55:56;;;;;;;6.27;4.40;;;;;6.10;102658.00;;;;5043282;28;20255;-73
2023/12/18 00:58:44;;;;;;;11.43;4.20;;;;;6.10;102667.00;;;;5037210;28;20227;-74
2023/12/18 01:01:30;;;;;;;8.40;3.67;;;;;6.10;102661.00;;;;5030753;28;20248;-74
2023/12/18 01:04:17;;;;;;;8.30;4.53;;;;;6.10;102666.00;;;;5041028;28;20225;-73
2023/12/18 01:07:03;;;;;;;6.30;4.23;;;;;6.10;102672.00;;;;5042070;28;20232;-73
2023/12/18 01:09:50;;;;;;;8.97;4.43;;;;;6.20;102668.00;;;;5041874;28;20244;-73
2023/12/18 01:12:36;;;;;;;5.10;4.23;;;;;6.20;102671.00;;;;5036931;28;20258;-75
2023/12/18 01:15:24;;;;;;;10.53;3.93;;;;;6.20;102664.00;;;;5042919;28;20637;-75
2023/12/18 01:18:11;;;;;;;8.97;4.17;;;;;6.10;102672.00;;;;5043757;28;20228;-74
2023/12/18 01:20:58;;;;;;;8.33;4.53;;;;;6.10;102676.00;;;;5040096;28;20239;-72
2023/12/18 01:23:44;;;;;;;7.50;4.03;;;;;6.20;102662.00;;;;5038431;28;20721;-74
2023/12/18 01:26:31;;;;;;;10.37;4.63;;;;;6.20;102665.00;;;;5032938;28;20258;-74
2023/12/18 01:29:17;;;;;;;9.73;5.03;;;;;6.30;102665.00;;;;5043382;28;20266;-73
2023/12/18 01:32:05;;;;;;;9.47;5.47;;;;;6.30;102665.00;;;;5033877;28;20232;-77
2023/12/18 01:34:52;;;;;;;13.13;5.37;;;;;6.40;102670.00;;;;5036569;28;20241;-71
2023/12/18 01:37:38;;;;;;;13.00;5.70;;;;;6.40;102673.00;;;;5037441;28;20228;-73
2023/12/18 01:40:25;;;;;;;11.23;5.50;;;;;6.40;102669.00;;;;5043438;28;20228;-73
2023/12/18 01:43:25;;;;;;;13.57;5.67;;;;;6.40;102679.00;;;;5035501;28;20341;-74
2023/12/18 01:46:17;;;;;;;9.37;5.23;;;;;6.40;102679.00;;;;5030775;28;20781;-73
2023/12/18 01:49:05;;;;;;;10.03;5.57;;;;;6.50;102669.00;;;;5041801;28;20785;-72
2023/12/18 01:51:53;;;;;;;8.70;5.17;;;;;6.50;102672.00;;;;5037065;28;22110;-75
2023/12/18 01:54:40;;;;;;;7.73;4.73;;;;;6.40;102666.00;;;;5036748;28;20225;-74
2023/12/18 01:57:26;;;;;;;14.10;5.60;;;;;6.40;102677.00;;;;5042951;28;20228;-74
2023/12/18 02:00:14;;;;;;;10.60;5.27;;;;;6.40;102663.00;;;;5037997;28;20752;-73
2023/12/18 02:03:02;;;;;;;12.97;6.27;;;;;6.50;102673.00;;;;5036868;28;20336;-74
2023/12/18 02:05:50;;;;;;;9.43;4.83;;;;;6.50;102665.00;;;;5035600;28;20306;-73
2023/12/18 02:08:39;;;;;;;10.43;5.03;;;;;6.50;102663.00;;;;5018475;28;20285;-73
2023/12/18 02:11:26;;;;;;;9.93;4.93;;;;;6.50;102657.00;;;;5040189;28;20228;-74
2023/12/18 02:14:13;;;;;;;11.67;6.20;;;;;6.60;102669.00;;;;5037859;28;20303;-73
2023/12/18 02:16:59;;;;;;;11.47;5.70;;;;;6.50;102662.00;;;;5042316;28;20240;-72
2023/12/18 02:19:45;;;;;;;8.37;5.23;;;;;6.50;102674.00;;;;5043391;28;20240;-73
2023/12/18 02:22:36;;;;;;;11.30;6.40;;;;;6.60;102672.00;;;;5039574;28;20232;-73
2023/12/18 02:25:22;;;;;;;11.67;6.17;;;;;6.50;102660.00;;;;5045415;28;20233;-73
2023/12/18 02:28:12;;;;;;;10.70;5.47;;;;;6.50;102646.00;;;;5043652;28;20236;-73
2023/12/18 02:30:58;;;;;;;13.37;5.53;;;;;6.50;102644.00;;;;5042634;28;20236;-73
2023/12/18 02:33:48;;;;;;;10.87;6.10;;;;;6.50;102648.00;;;;5046445;28;20228;-72
2023/12/18 02:36:35;;;;;;;10.73;5.30;;;;;6.50;102643.00;;;;5042981;28;21548;-71
2023/12/18 02:39:23;;;;;;;11.40;5.17;;;;;6.50;102639.00;;;;5046825;28;20597;-71
2023/12/18 02:42:10;;;;;;;14.50;6.23;;;;;6.50;102642.00;;;;5043074;28;20224;-72
2023/12/18 02:44:57;;;;;;;11.63;5.20;;;;;6.60;102641.00;;;;5039117;28;20732;-71
2023/12/18 02:47:43;;;;;;;15.30;5.93;;;;;6.50;102641.00;;;;5036959;28;20236;-73
2023/12/18 02:50:30;;;;;;;8.77;5.27;;;;;6.50;102657.00;;;;5038687;28;20244;-72
2023/12/18 02:53:17;;;;;;;10.80;4.93;;;;;6.50;102668.00;;;;5046213;28;20711;-75
2023/12/18 02:56:06;;;;;;;8.60;4.77;;;;;6.60;102652.00;;;;5045221;28;20653;-73
2023/12/18 02:58:52;;;;;;;11.03;5.23;;;;;6.60;102654.00;;;;5043434;28;20229;-73
2023/12/18 03:01:38;;;;;;;9.30;5.40;;;;;6.60;102650.00;;;;5036641;28;20228;-74
2023/12/18 03:04:25;;;;;;;11.37;4.97;;;;;6.60;102646.00;;;;5044329;28;20228;-73
2023/12/18 03:07:11;;;;;;;9.03;5.40;;;;;6.60;102638.00;;;;5044626;28;20248;-75
2023/12/18 03:09:58;;;;;;;9.47;5.03;;;;;6.60;102639.00;;;;5038900;28;20244;-73
2023/12/18 03:12:46;;;;;;;11.47;5.67;;;;;6.50;102633.00;;;;5038000;28;20703;-72
2023/12/18 03:15:34;;;;;;;13.57;4.80;;;;;6.60;102634.00;;;;5045849;28;20240;-74
2023/12/18 03:18:20;;;;;;;15.70;6.27;;;;;6.60;102622.00;;;;5045860;28;20300;-73
2023/12/18 03:21:09;;;;;;;12.27;5.43;;;;;6.70;102623.00;;;;5044004;28;20229;-73
2023/12/18 03:23:56;;;;;;;9.90;4.73;;;;;6.50;102622.00;;;;5046412;28;20237;-73
2023/12/18 03:26:42;;;;;;;10.57;5.43;;;;;6.60;102622.00;;;;5037917;28;20233;-73
2023/12/18 03:29:30;;;;;;;11.10;5.43;;;;;6.60;102609.00;;;;5032159;28;20238;-73
2023/12/18 03:32:17;;;;;;;10.27;5.63;;;;;6.60;102602.00;;;;5043201;28;20225;-73
2023/12/18 03:35:03;;;;;;;9.33;5.20;;;;;6.60;102593.00;;;;5038520;28;20240;-72
2023/12/18 03:37:49;;;;;;;15.97;6.43;;;;;6.60;102600.00;;;;5046089;28;20236;-72
2023/12/18 03:40:36;;;;;;;12.30;5.50;;;;;6.60;102607.00;;;;5040951;28;20237;-73
2023/12/18 03:43:23;;;;;;;12.40;5.80;;;;;6.60;102577.00;;;;5039974;28;20648;-73
2023/12/18 03:46:10;;;;;;;9.13;5.13;;;;;6.70;102596.00;;;;5033905;28;20240;-73
2023/12/18 03:48:57;;;;;;;8.73;5.63;;;;;6.70;102582.00;;;;5039546;28;20334;-72
2023/12/18 03:51:43;;;;;;;10.20;4.87;;;;;6.60;102591.00;;;;5045002;28;20220;-72
2023/12/18 03:54:30;;;;;;;12.40;5.30;;;;;6.60;102586.00;;;;5044387;28;20299;-73
2023/12/18 03:57:16;;;;;;;18.33;6.80;;;;;6.60;102591.00;;;;5041678;28;20283;-73
2023/12/18 04:00:04;;;;;;;10.73;4.80;;;;;6.50;102600.00;;;;5045216;28;20582;-73
2023/12/18 04:02:52;;;;;;;9.57;4.90;;;;;6.60;102598.00;;;;5038371;28;20717;-72
2023/12/18 04:05:39;;;;;;;11.50;6.17;;;;;6.50;102594.00;;;;5040307;28;20291;-75
2023/12/18 04:08:25;;;;;;;12.27;5.50;;;;;6.60;102591.00;;;;5045220;28;20306;-74
2023/12/18 04:11:15;;;;;;;14.10;6.30;;;;;6.60;102602.00;;;;5045079;28;20243;-70
2023/12/18 04:14:02;;;;;;;14.63;6.13;;;;;6.70;102596.00;;;;5038450;28;20225;-73
2023/12/18 04:16:48;;;;;;;14.20;7.00;;;;;6.70;102596.00;;;;5044660;28;20606;-74
2023/12/18 04:19:36;;;;;;;12.43;6.70;;;;;6.70;102597.00;;;;5042449;28;20372;-73
2023/12/18 04:22:22;;;;;;;17.07;7.67;;;;;6.60;102596.00;;;;5044344;28;20225;-72
2023/12/18 04:25:09;;;;;;;12.97;6.93;;;;;6.70;102611.00;;;;5038754;28;20298;-74
2023/12/18 04:27:55;;;;;;;17.20;7.47;;;;;6.70;102609.00;;;;5042754;28;20419;-73
2023/12/18 04:30:41;;;;;;;15.80;6.90;;;;;6.60;102615.00;;;;5044197;28;20388;-73
2023/12/18 04:33:28;;;;;;;15.60;8.00;;;;;6.60;102617.00;;;;5042269;28;20236;-73
2023/12/18 04:36:16;;;;;;;16.57;6.90;;;;;6.60;102607.00;;;;5043976;28;20231;-72
2023/12/18 04:39:02;;;;;;;16.63;7.03;;;;;6.60;102612.00;;;;5039201;28;20224;-73
2023/12/18 04:41:48;;;;;;;18.10;6.97;;;;;6.60;102611.00;;;;5037807;28;20948;-73
2023/12/18 04:44:35;;;;;;;14.60;6.50;;;;;6.60;102614.00;;;;5035877;28;20229;-73
2023/12/18 04:47:21;;;;;;;12.13;6.57;;;;;6.70;102615.00;;;;5040849;28;20745;-73
2023/12/18 04:50:08;;;;;;;13.93;7.50;;;;;6.50;102602.00;;;;5037988;28;20367;-74
2023/12/18 04:52:56;;;;;;;29.17;7.53;;;;;6.50;102597.00;;;;5036379;28;20221;-74
2023/12/18 04:55:42;;;;;;;15.03;8.03;;;;;6.50;102589.00;;;;5043915;28;20286;-73
2023/12/18 04:58:30;;;;;;;18.23;7.83;;;;;6.40;102604.00;;;;5016618;28;20234;-72
2023/12/18 05:01:17;;;;;;;15.73;7.87;;;;;6.50;102607.00;;;;5044162;28;20611;-73
2023/12/18 05:04:03;;;;;;;21.43;8.27;;;;;6.50;102599.00;;;;5039683;28;20224;-72
2023/12/18 05:06:50;;;;;;;18.60;7.07;;;;;6.60;102599.00;;;;5040670;28;20230;-72
2023/12/18 05:09:38;;;;;;;14.37;6.87;;;;;6.50;102613.00;;;;5043748;28;20233;-72
2023/12/18 05:12:24;;;;;;;17.53;7.97;;;;;6.50;102601.00;;;;5041157;28;20363;-73
2023/12/18 05:15:11;;;;;;;12.50;7.43;;;;;6.50;102612.00;;;;5042391;28;20236;-70
2023/12/18 05:17:57;;;;;;;15.63;8.00;;;;;6.50;102608.00;;;;5036698;28;20359;-74
2023/12/18 05:20:43;;;;;;;20.50;7.50;;;;;6.50;102604.00;;;;5043962;28;20347;-73
2023/12/18 05:23:30;;;;;;;16.93;7.60;;;;;6.50;102592.00;;;;5022744;28;20835;-74
2023/12/18 05:26:18;;;;;;;16.70;8.27;;;;;6.60;102595.00;;;;5044724;28;20806;-73
2023/12/18 05:29:05;;;;;;;13.43;6.67;;;;;6.50;102592.00;;;;5038100;28;20856;-71
2023/12/18 05:31:51;;;;;;;20.37;7.73;;;;;6.50;102587.00;;;;5042810;28;20283;-73
2023/12/18 05:34:38;;;;;;;19.77;8.13;;;;;6.60;102577.00;;;;5046012;28;20230;-72
2023/12/18 05:37:24;;;;;;;25.80;8.27;;;;;6.50;102580.00;;;;5040411;28;20280;-72
2023/12/18 05:40:12;;;;;;;22.00;8.37;;;;;6.50;102583.00;;;;5038274;28;20247;-73
2023/12/18 05:43:00;;;;;;;21.83;9.90;;;;;6.50;102578.00;;;;5035844;28;20240;-72
2023/12/18 05:45:46;;;;;;;15.63;8.93;;;;;6.40;102572.00;;;;5046121;28;20274;-74
2023/12/18 05:48:33;;;;;;;18.77;7.53;;;;;6.50;102571.00;;;;5036918;28;20248;-72
2023/12/18 05:51:20;;;;;;;21.33;8.47;;;;;6.50;102578.00;;;;5048107;28;20232;-73
2023/12/18 05:54:07;;;;;;;16.67;9.27;;;;;6.40;102570.00;;;;5044053;28;20225;-73
2023/12/18 05:56:53;;;;;;;21.63;8.43;;;;;6.50;102579.00;;;;5047869;28;20232;-73
2023/12/18 05:59:41;;;;;;;20.47;9.10;;;;;6.50;102580.00;;;;5045469;28;20391;-73
2023/12/18 06:02:28;;;;;;;19.03;8.37;;;;;6.40;102594.00;;;;5047531;28;20760;-73
2023/12/18 06:05:14;;;;;;;17.77;9.30;;;;;6.40;102584.00;;;;5047487;28;20224;-73
2023/12/18 06:08:01;;;;;;;16.57;9.33;;;;;6.40;102579.00;;;;5041038;28;20327;-73
2023/12/18 06:10:47;;;;;;;23.20;10.80;;;;;6.50;102582.00;;;;5050234;28;20271;-73
2023/12/18 06:13:34;;;;;;;17.07;9.53;;;;;6.40;102594.00;;;;5036678;28;20247;-73
2023/12/18 06:16:21;;;;;;;19.93;9.63;;;;;6.40;102599.00;;;;5046352;28;20224;-73
2023/12/18 06:19:07;;;;;;;19.17;8.73;;;;;6.40;102589.00;;;;5042337;28;20224;-73
2023/12/18 06:21:54;;;;;;;23.30;10.57;;;;;6.40;102595.00;;;;5045188;28;20228;-73
2023/12/18 06:24:41;;;;;;;24.03;9.33;;;;;6.40;102592.00;;;;5046369;28;20757;-74
2023/12/18 06:27:28;;;;;;;21.97;11.07;;;;;6.40;102596.00;;;;5047132;28;20228;-73
2023/12/18 06:30:15;;;;;;;22.70;9.27;;;;;6.50;102588.00;;;;5047136;28;20221;-73
2023/12/18 06:33:06;;;;;;;18.33;9.20;;;;;6.40;102582.00;;;;5036089;28;20361;-72
2023/12/18 06:35:53;;;;;;;21.67;9.17;;;;;6.30;102575.00;;;;5041188;28;20302;-73
2023/12/18 06:38:39;;;;;;;20.53;9.80;;;;;6.20;102566.00;;;;5042871;28;20232;-73
2023/12/18 06:41:25;;;;;;;25.17;9.77;;;;;6.20;102576.00;;;;5042712;28;20240;-73
2023/12/18 06:44:12;;;;;;;21.77;9.13;;;;;6.30;102582.00;;;;5044571;28;20224;-72
2023/12/18 06:46:58;;;;;;;22.70;9.87;;;;;6.30;102577.00;;;;5044164;28;20311;-73
2023/12/18 06:49:46;;;;;;;23.37;9.90;;;;;6.40;102576.00;;;;5040021;28;20313;-73
2023/12/18 06:52:32;;;;;;;18.67;9.93;;;;;6.30;102574.00;;;;5041790;28;20355;-74
2023/12/18 06:55:19;;;;;;;20.43;10.20;;;;;6.30;102579.00;;;;5048919;28;20232;-73
2023/12/18 06:58:05;;;;;;;20.53;10.03;;;;;6.30;102585.00;;;;5042175;28;20809;-72
2023/12/18 07:00:51;;;;;;;19.10;9.73;;;;;6.30;102595.00;;;;5037768;28;20391;-74
2023/12/18 07:03:38;;;;;;;18.23;9.90;;;;;6.40;102588.00;;;;5028993;28;20411;-74
2023/12/18 07:06:25;;;;;;;20.60;9.87;;;;;6.50;102596.00;;;;5045268;28;20258;-73
2023/12/18 07:09:12;;;;;;;22.10;10.00;;;;;6.50;102585.00;;;;5039683;28;20237;-73
2023/12/18 07:11:58;;;;;;;23.63;9.50;;;;;6.40;102582.00;;;;5036754;28;20720;-73
2023/12/18 07:14:45;;;;;;;19.83;10.10;;;;;6.40;102584.00;;;;5041941;28;20284;-75
2023/12/18 07:17:31;;;;;;;21.40;9.83;;;;;6.50;102580.00;;;;5035535;28;20352;-75
2023/12/18 07:20:18;;;;;;;21.20;9.97;;;;;6.50;102594.00;;;;5042354;28;20233;-73
2023/12/18 07:23:06;;;;;;;15.83;9.20;;;;;6.50;102584.00;;;;5035876;28;20304;-72
2023/12/18 07:25:53;;;;;;;19.97;9.93;;;;;6.40;102601.00;;;;5043945;28;20237;-75
2023/12/18 07:28:40;;;;;;;21.27;10.33;;;;;6.40;102603.00;;;;5043042;28;20263;-72
2023/12/18 07:31:27;;;;;;;27.57;10.33;;;;;6.40;102607.00;;;;5043376;28;20248;-73
2023/12/18 07:34:13;;;;;;;20.67;9.70;;;;;6.50;102606.00;;;;5035864;28;20221;-75
2023/12/18 07:37:00;;;;;;;20.00;10.30;;;;;6.50;102596.00;;;;5037271;28;20264;-72
2023/12/18 07:39:47;;;;;;;27.43;11.10;;;;;6.50;102600.00;;;;5035017;28;20220;-76
2023/12/18 07:42:34;;;;;;;22.70;10.37;;;;;6.50;102607.00;;;;5038542;28;20288;-73
2023/12/18 07:45:20;;;;;;;27.60;11.37;;;;;6.50;102598.00;;;;5040526;28;20248;-73
2023/12/18 07:48:07;;;;;;;20.30;9.77;;;;;6.40;102605.00;;;;5038950;28;20221;-75
2023/12/18 07:50:55;;;;;;;18.97;10.17;;;;;6.50;102596.00;;;;5042532;28;20240;-75
2023/12/18 07:53:42;;;;;;;24.50;9.27;;;;;6.50;102596.00;;;;5039366;28;20280;-77
2023/12/18 07:56:30;;;;;;;22.03;9.43;;;;;6.50;102597.00;;;;5043740;28;20236;-75
2023/12/18 07:59:17;;;;;;;20.13;10.93;;;;;6.60;102596.00;;;;5042659;28;20891;-74
2023/12/18 08:02:04;;;;;;;24.17;11.57;;;;;6.70;102596.00;;;;5039731;28;20240;-73
2023/12/18 08:04:51;;;;;;;20.07;10.17;;;;;6.50;102593.00;;;;5034157;28;20248;-72
2023/12/18 08:07:37;;;;;;;20.20;10.53;;;;;6.50;102595.00;;;;5043370;28;20231;-74
2023/12/18 08:10:23;;;;;;;23.17;10.73;;;;;6.50;102598.00;;;;5041084;28;20240;-74
2023/12/18 08:13:11;;;;;;;22.63;9.57;;;;;6.50;102597.00;;;;5040061;28;21062;-73
2023/12/18 08:15:57;;;;;;;27.47;10.40;;;;;6.50;102595.00;;;;5044357;28;20291;-73
2023/12/18 08:18:44;;;;;;;24.37;10.73;;;;;6.50;102602.00;;;;5044150;28;20252;-74
2023/12/18 08:21:31;;;;;;;22.20;11.10;;;;;6.40;102588.00;;;;5040074;28;20302;-72
2023/12/18 08:24:18;;;;;;;23.27;11.17;;;;;6.50;102588.00;;;;5035323;28;20225;-74
2023/12/18 08:27:04;;;;;;;25.60;11.20;;;;;6.50;102581.00;;;;5035502;28;20237;-72
2023/12/18 08:29:52;;;;;;;23.27;11.13;;;;;6.50;102584.00;;;;5036017;28;20257;-73
2023/12/18 08:32:39;;;;;;;21.60;11.20;;;;;6.60;102577.00;;;;5040552;28;20236;-72
2023/12/18 08:35:26;;;;;;;22.73;10.67;;;;;6.60;102591.00;;;;5034658;28;20364;-73
2023/12/18 08:38:13;;;;;;;28.40;11.23;;;;;6.70;102587.00;;;;5036677;28;20304;-72
2023/12/18 08:41:00;;;;;;;20.13;9.93;;;;;6.70;102580.00;;;;5041468;28;20228;-72
2023/12/18 08:43:46;;;;;;;20.17;10.63;;;;;6.70;102582.00;;;;5037777;28;20228;-73
2023/12/18 08:46:49;;;;;;;25.00;11.40;;;;;6.60;102579.00;;;;5036728;28;20228;-73
2023/12/18 08:49:35;;;;;;;23.17;10.90;;;;;6.70;102572.00;;;;5040469;28;20368;-72
2023/12/18 08:52:22;;;;;;;26.17;11.33;;;;;6.80;102580.00;;;;5033017;28;20286;-73
2023/12/18 08:55:09;;;;;;;26.20;10.83;;;;;6.80;102575.00;;;;5038204;28;20294;-73
2023/12/18 08:57:55;;;;;;;21.57;9.90;;;;;6.80;102576.00;;;;5035820;28;20386;-73
2023/12/18 09:00:43;;;;;;;26.67;11.87;;;;;6.70;102584.00;;;;5042833;28;20232;-73
2023/12/18 09:03:35;;;;;;;24.47;10.87;;;;;6.70;102574.00;;;;5013529;28;20228;-73
2023/12/18 09:06:21;;;;;;;23.00;11.27;;;;;6.60;102574.00;;;;5046104;28;20295;-73
2023/12/18 09:09:08;;;;;;;23.20;11.40;;;;;6.50;102569.00;;;;5039448;28;20307;-73
2023/12/18 09:11:54;;;;;;;22.97;11.73;;;;;6.60;102565.00;;;;5034356;28;20233;-71
2023/12/18 09:14:41;;;;;;;24.57;11.27;;;;;6.60;102581.00;;;;5040929;28;20259;-72
2023/12/18 09:17:28;;;;;;;29.83;11.63;;;;;6.60;102570.00;;;;5041276;28;20953;-72
2023/12/18 09:20:16;;;;;;;26.27;11.63;;;;;6.60;102564.00;;;;5031153;28;20225;-72
2023/12/18 09:23:08;;;;;;;22.30;11.67;;;;;6.70;102569.00;;;;5032425;28;20233;-72
2023/12/18 09:25:54;;;;;;;21.07;10.80;;;;;6.70;102577.00;;;;5035736;28;20232;-73
2023/12/18 09:28:40;;;;;;;25.03;11.57;;;;;6.70;102563.00;;;;5039677;28;20678;-72
2023/12/18 09:31:27;;;;;;;22.37;10.47;;;;;6.80;102574.00;;;;5032956;28;20224;-74
2023/12/18 09:34:13;;;;;;;22.30;10.37;;;;;6.80;102570.00;;;;5041938;28;20375;-74
2023/12/18 09:37:01;;;;;;;22.83;10.63;;;;;6.80;102566.00;;;;5043705;28;20354;-73
2023/12/18 09:39:48;;;;;;;20.53;10.90;;;;;6.90;102556.00;;;;5042145;28;20279;-73
2023/12/18 09:42:34;;;;;;;24.93;11.57;;;;;6.80;102557.00;;;;5043131;28;20878;-73
2023/12/18 09:45:23;;;;;;;21.67;10.77;;;;;6.80;102549.00;;;;5034597;28;20290;-73
2023/12/18 09:48:09;;;;;;;23.23;11.10;;;;;6.70;102565.00;;;;5043226;28;20229;-73
2023/12/18 09:50:56;;;;;;;21.87;10.43;;;;;6.80;102562.00;;;;5032305;28;20233;-72
2023/12/18 09:53:44;;;;;;;21.03;10.20;;;;;6.80;102564.00;;;;5045632;28;20232;-71
2023/12/18 09:56:31;;;;;;;23.20;11.20;;;;;6.70;102571.00;;;;5043275;28;20233;-70
2023/12/18 09:59:18;;;;;;;24.10;11.50;;;;;6.80;102567.00;;;;5036462;28;20299;-69
2023/12/18 10:02:04;;;;;;;22.20;11.60;;;;;6.80;102561.00;;;;5037180;28;20758;-71
2023/12/18 10:04:51;;;;;;;23.13;10.17;;;;;6.80;102574.00;;;;5032486;28;20720;-71
2023/12/18 10:07:37;;;;;;;18.80;11.20;;;;;6.80;102566.00;;;;5037473;28;20228;-71
2023/12/18 10:10:25;;;;;;;20.03;10.67;;;;;6.80;102563.00;;;;5033535;28;20371;-68
2023/12/18 10:13:13;;;;;;;28.13;12.40;;;;;6.80;102569.00;;;;5043181;28;20351;-71
2023/12/18 10:16:00;;;;;;;20.93;11.23;;;;;6.80;102566.00;;;;5040531;28;20237;-71
2023/12/18 10:18:46;;;;;;;24.07;10.63;;;;;6.80;102565.00;;;;5039757;28;20733;-72
2023/12/18 10:21:33;;;;;;;22.27;11.80;;;;;6.80;102562.00;;;;5040437;28;20232;-69
2023/12/18 10:24:20;;;;;;;26.20;11.73;;;;;6.80;102547.00;;;;5041785;28;20360;-72
2023/12/18 10:27:08;;;;;;;21.13;10.37;;;;;6.80;102552.00;;;;5038699;28;20228;-71
2023/12/18 10:29:55;;;;;;;28.77;10.23;;;;;6.90;102550.00;;;;5043059;28;20240;-72
2023/12/18 10:32:42;;;;;;;26.13;11.23;;;;;6.90;102532.00;;;;5036432;28;20628;-70
2023/12/18 10:35:29;;;;;;;32.30;11.13;;;;;6.90;102529.00;;;;5046118;28;20275;-71
2023/12/18 10:38:20;;;;;;;22.23;10.83;;;;;6.90;102526.00;;;;5041075;28;20611;-70
2023/12/18 10:41:09;;;;;;;23.93;11.20;;;;;6.90;102519.00;;;;5044414;28;20237;-70
2023/12/18 10:43:57;;;;;;;31.03;11.77;;;;;6.80;102524.00;;;;5043254;28;20616;-72
2023/12/18 10:46:45;;;;;;;26.30;12.37;;;;;6.90;102517.00;;;;5044653;28;20599;-73
2023/12/18 10:49:34;;;;;;;24.83;12.60;;;;;6.80;102513.00;;;;5044398;28;20236;-72
2023/12/18 10:52:21;;;;;;;30.17;12.57;;;;;6.80;102512.00;;;;5045133;28;20237;-71
2023/12/18 10:55:10;;;;;;;24.00;11.97;;;;;6.80;102501.00;;;;5043944;28;20240;-71
2023/12/18 10:57:59;;;;;;;32.67;12.50;;;;;6.80;102502.00;;;;5041365;28;20715;-73
2023/12/18 11:00:49;;;;;;;33.53;11.60;;;;;6.80;102491.00;;;;5042043;28;20270;-72
2023/12/18 11:03:36;;;;;;;22.17;11.73;;;;;6.80;102490.00;;;;5022861;28;20403;-70
2023/12/18 11:06:23;;;;;;;27.07;12.07;;;;;6.80;102508.00;;;;5046503;28;20322;-72
2023/12/18 11:09:10;;;;;;;30.67;12.60;;;;;6.90;102494.00;;;;5045088;28;20721;-71
2023/12/18 11:11:56;;;;;;;23.37;11.67;;;;;6.80;102500.00;;;;5043889;28;20252;-71
2023/12/18 11:14:54;;;;;;;23.80;11.23;;;;;6.80;102496.00;;;;5044461;28;20225;-71
2023/12/18 11:17:48;;;;;;;25.13;11.50;;;;;6.80;102490.00;;;;5046473;28;20240;-69
2023/12/18 11:20:36;;;;;;;25.83;11.33;;;;;6.90;102487.00;;;;5037026;28;20790;-70
2023/12/18 11:23:26;;;;;;;30.03;11.63;;;;;6.90;102494.00;;;;5045477;28;20302;-71
2023/12/18 11:26:14;;;;;;;20.53;12.17;;;;;6.90;102488.00;;;;5047014;28;20233;-71
2023/12/18 11:29:04;;;;;;;26.17;10.83;;;;;6.90;102476.00;;;;5051783;28;20235;-71
2023/12/18 11:31:53;;;;;;;30.70;11.47;;;;;6.90;102476.00;;;;5044633;28;20302;-70
2023/12/18 11:34:42;;;;;;;18.93;10.33;;;;;6.90;102473.00;;;;5036173;28;20225;-71
2023/12/18 11:37:28;;;;;;;26.90;10.63;;;;;6.90;102484.00;;;;5045199;28;20653;-71
2023/12/18 11:40:39;;;;;;;16.70;9.07;;;;;7.00;102479.00;;;;5045066;28;20315;-71
2023/12/18 11:43:36;;;;;;;19.17;10.00;;;;;7.00;102481.00;;;;5044199;28;20234;-73
2023/12/18 11:46:24;;;;;;;17.13;9.07;;;;;6.90;102467.00;;;;5044677;28;20233;-70
2023/12/18 11:49:12;;;;;;;17.30;8.87;;;;;7.00;102462.00;;;;5038951;28;20237;-72
2023/12/18 11:52:16;;;;;;;19.00;9.43;;;;;7.10;102451.00;;;;5043508;28;20291;-72
2023/12/18 11:55:04;;;;;;;17.17;8.90;;;;;7.10;102446.00;;;;5040243;28;20233;-71
2023/12/18 11:57:52;;;;;;;27.53;11.03;;;;;7.10;102446.00;;;;5035128;28;20295;-71
2023/12/18 12:00:39;;;;;;;17.93;8.97;;;;;7.10;102452.00;;;;5042662;28;20228;-69
2023/12/18 12:03:26;;;;;;;22.97;9.00;;;;;7.20;102452.00;;;;5038668;28;20239;-71
2023/12/18 12:06:15;;;;;;;18.37;9.80;;;;;7.20;102448.00;;;;5046648;28;20279;-71
2023/12/18 12:09:02;;;;;;;23.07;10.63;;;;;7.20;102455.00;;;;5033727;28;20277;-72
2023/12/18 12:11:49;;;;;;;23.70;11.43;;;;;7.20;102449.00;;;;5037816;28;20337;-71
2023/12/18 12:14:35;;;;;;;21.50;10.40;;;;;7.20;102447.00;;;;5038999;28;20230;-72
2023/12/18 12:17:21;;;;;;;16.83;9.23;;;;;7.10;102449.00;;;;5042798;28;20236;-71
2023/12/18 12:20:08;;;;;;;21.37;11.27;;;;;7.20;102446.00;;;;5049541;28;20305;-70
2023/12/18 12:22:54;;;;;;;18.63;9.43;;;;;7.20;102443.00;;;;5047092;28;20225;-71
2023/12/18 12:25:42;;;;;;;15.30;8.83;;;;;7.20;102435.00;;;;5038346;28;20302;-72
2023/12/18 12:28:29;;;;;;;21.80;9.70;;;;;7.10;102431.00;;;;5011777;28;20375;-71
2023/12/18 12:31:17;;;;;;;18.53;9.50;;;;;7.10;102424.00;;;;5041737;28;20237;-72
2023/12/18 12:34:03;;;;;;;18.97;9.40;;;;;7.10;102417.00;;;;5039453;28;20626;-73
2023/12/18 12:36:50;;;;;;;24.17;10.90;;;;;7.10;102415.00;;;;5040745;28;20753;-75
2023/12/18 12:39:36;;;;;;;20.27;10.17;;;;;7.20;102417.00;;;;5037031;28;20228;-72
2023/12/18 12:42:24;;;;;;;19.37;10.47;;;;;7.20;102408.00;;;;5044559;28;20233;-73
2023/12/18 12:45:11;;;;;;;20.27;10.57;;;;;7.20;102405.00;;;;5044348;28;20233;-72
2023/12/18 12:47:58;;;;;;;17.27;9.57;;;;;7.30;102394.00;;;;5046647;28;20224;-72
2023/12/18 12:50:47;;;;;;;20.37;10.90;;;;;7.30;102410.00;;;;5039565;28;21001;-70
2023/12/18 12:53:34;;;;;;;17.43;9.27;;;;;7.20;102405.00;;;;5033000;28;20228;-74
2023/12/18 12:56:20;;;;;;;17.20;8.90;;;;;7.20;102404.00;;;;5041307;28;20241;-72
2023/12/18 12:59:08;;;;;;;20.47;10.10;;;;;7.20;102400.00;;;;5043030;28;20221;-70
2023/12/18 13:01:55;;;;;;;20.13;9.10;;;;;7.20;102399.00;;;;5037464;28;20236;-72
2023/12/18 13:04:42;;;;;;;18.07;9.57;;;;;7.20;102386.00;;;;5035041;28;20231;-71
2023/12/18 13:07:28;;;;;;;15.63;9.07;;;;;7.20;102391.00;;;;5044011;28;21098;-74
2023/12/18 13:10:15;;;;;;;25.80;9.23;;;;;7.10;102371.00;;;;5045624;28;20229;-74
2023/12/18 13:13:01;;;;;;;17.63;9.10;;;;;7.20;102381.00;;;;5032057;28;20280;-75
2023/12/18 13:15:52;;;;;;;16.00;9.07;;;;;7.20;102358.00;;;;5036436;28;20228;-74
2023/12/18 13:18:39;;;;;;;17.97;9.43;;;;;7.30;102363.00;;;;5035575;28;20237;-75
2023/12/18 13:21:25;;;;;;;19.37;9.53;;;;;7.30;102360.00;;;;5043124;28;20230;-75
2023/12/18 13:24:12;;;;;;;20.13;9.70;;;;;7.20;102364.00;;;;5042844;28;20279;-75
2023/12/18 13:26:58;;;;;;;20.00;10.13;;;;;7.30;102360.00;;;;5041765;28;20248;-74
2023/12/18 13:29:44;;;;;;;17.87;8.73;;;;;7.30;102360.00;;;;5043610;28;20888;-74
2023/12/18 13:32:32;;;;;;;20.10;10.50;;;;;7.20;102366.00;;;;5043172;28;20264;-74
2023/12/18 13:35:18;;;;;;;16.23;10.13;;;;;7.30;102365.00;;;;5043817;28;20241;-74
2023/12/18 13:38:05;;;;;;;19.33;10.20;;;;;7.20;102378.00;;;;5039004;28;20830;-72
2023/12/18 13:40:51;;;;;;;17.17;9.43;;;;;7.30;102352.00;;;;5041090;28;20303;-73
2023/12/18 13:43:38;;;;;;;25.07;9.77;;;;;7.30;102349.00;;;;5032639;28;20295;-76